Time;durP1;ratioP1;P1;durP2;ratioP2;P2;SDS_P1;SDS_P2;PMS_P1;PMS_P2;Temp;Humidity;BMP_temperature;BMP_pressure;BME280_temperature;BME280_humidity;BME280_pressure;Samples;Min_cycle;Max_cycle;Signal;HPM_P1;HPM_P2
2020/12/01 00:01:45;;;;;;;23.17;9.63;;;1.50;99.90;;;;;;4896342;28;20094;-81
2020/12/01 00:04:09;;;;;;;19.23;9.70;;;1.50;99.90;;;;;;4883797;28;20573;-79
2020/12/01 00:06:37;;;;;;;19.65;9.73;;;1.50;99.90;;;;;;4899645;28;20256;-81
2020/12/01 00:09:04;;;;;;;30.08;8.35;;;1.50;99.90;;;;;;4903680;28;20143;-80
2020/12/01 00:11:27;;;;;;;23.75;10.27;;;1.50;99.90;;;;;;4893103;28;20092;-80
2020/12/01 00:13:50;;;;;;;20.80;8.98;;;1.50;99.90;;;;;;4901389;28;20444;-81
2020/12/01 00:16:15;;;;;;;23.67;9.15;;;1.50;99.90;;;;;;4901481;28;20094;-80
2020/12/01 00:18:40;;;;;;;20.30;9.70;;;1.50;99.90;;;;;;4902610;28;20094;-81
2020/12/01 00:21:03;;;;;;;;;;;1.50;99.90;;;;;;4895548;28;20098;-83
2020/12/01 00:23:29;;;;;;;18.33;8.85;;;1.50;99.90;;;;;;4906260;28;19969;-81
2020/12/01 00:25:55;;;;;;;25.58;10.43;;;1.60;99.90;;;;;;4895492;28;20090;-81
2020/12/01 00:28:18;;;;;;;26.63;9.80;;;1.60;99.90;;;;;;4899293;28;20225;-80
2020/12/01 00:30:42;;;;;;;23.63;9.23;;;1.60;99.90;;;;;;4905887;28;20170;-80
2020/12/01 00:33:13;;;;;;;15.95;8.27;;;1.60;99.90;;;;;;4903958;28;20145;-80
2020/12/01 00:35:38;;;;;;;24.63;9.60;;;1.60;99.90;;;;;;4893666;28;20119;-80
2020/12/01 00:38:02;;;;;;;21.83;9.55;;;1.60;99.90;;;;;;4903628;28;20086;-80
2020/12/01 00:40:26;;;;;;;18.35;9.25;;;1.60;99.90;;;;;;4899765;28;20095;-80
2020/12/01 00:42:49;;;;;;;19.85;9.57;;;1.60;99.90;;;;;;4899344;28;20078;-80
2020/12/01 00:45:14;;;;;;;19.80;8.75;;;1.60;99.90;;;;;;4908374;28;20102;-80
2020/12/01 00:47:37;;;;;;;20.55;9.40;;;1.60;99.90;;;;;;4905082;28;20097;-81
2020/12/01 00:50:00;;;;;;;18.92;9.13;;;1.60;99.90;;;;;;4895473;28;20467;-81
2020/12/01 00:52:23;;;;;;;21.05;9.88;;;1.60;99.90;;;;;;4899325;28;20120;-80
2020/12/01 00:54:52;;;;;;;23.42;9.13;;;1.60;99.90;;;;;;4907231;28;20215;-80
2020/12/01 00:57:17;;;;;;;25.42;10.60;;;;;;;;;;4898753;28;20128;-80
2020/12/01 00:59:41;;;;;;;20.42;9.68;;;1.60;99.90;;;;;;4901336;28;20449;-81
2020/12/01 01:02:04;;;;;;;21.20;9.27;;;1.60;99.90;;;;;;4897997;28;20178;-81
2020/12/01 01:04:27;;;;;;;19.15;9.80;;;1.60;99.90;;;;;;4880537;28;20094;-80
2020/12/01 01:06:51;;;;;;;19.08;9.35;;;1.60;99.90;;;;;;4884636;28;20090;-80
2020/12/01 01:09:14;;;;;;;20.27;8.82;;;1.60;99.90;;;;;;4903604;28;20426;-80
2020/12/01 01:11:37;;;;;;;21.00;9.75;;;1.60;99.90;;;;;;4899650;28;20140;-80
2020/12/01 01:14:01;;;;;;;26.15;9.88;;;;;;;;;;4908118;28;20475;-80
2020/12/01 01:16:27;;;;;;;18.23;9.30;;;1.60;99.90;;;;;;4907820;28;20564;-80
2020/12/01 01:18:53;;;;;;;24.02;10.18;;;1.60;99.90;;;;;;4915193;28;20089;-80
2020/12/01 01:21:17;;;;;;;18.42;9.38;;;1.70;99.90;;;;;;4869930;28;20085;-81
2020/12/01 01:23:40;;;;;;;20.90;9.10;;;1.60;99.90;;;;;;4870129;28;20551;-81
2020/12/01 01:26:03;;;;;;;19.95;10.05;;;1.70;99.90;;;;;;4869777;28;20102;-84
2020/12/01 01:28:26;;;;;;;24.77;10.63;;;1.70;99.90;;;;;;4865921;28;20081;-80
2020/12/01 01:30:51;;;;;;;17.88;9.63;;;;;;;;;;4873644;28;20104;-80
2020/12/01 01:33:14;;;;;;;25.25;10.48;;;2.00;99.90;;;;;;4877647;28;20099;-80
2020/12/01 01:35:37;;;;;;;22.80;9.90;;;1.70;99.90;;;;;;4880246;28;20090;-80
2020/12/01 01:38:00;;;;;;;28.65;9.73;;;1.70;99.90;;;;;;4888175;28;20096;-79
2020/12/01 01:40:27;;;;;;;20.52;9.75;;;1.80;99.90;;;;;;4886002;28;20123;-80
2020/12/01 01:42:51;;;;;;;23.50;9.38;;;1.80;99.90;;;;;;4866552;28;20421;-80
2020/12/01 01:45:23;;;;;;;23.73;9.88;;;1.70;99.90;;;;;;4872719;28;20525;-80
2020/12/01 01:47:48;;;;;;;23.33;10.05;;;1.70;99.90;;;;;;4877385;28;20106;-80
2020/12/01 01:50:14;;;;;;;;;;;1.70;99.90;;;;;;4881534;28;20093;-80
2020/12/01 01:52:41;;;;;;;22.02;10.95;;;1.70;99.90;;;;;;4881019;28;19977;-80
2020/12/01 01:55:12;;;;;;;18.52;9.07;;;1.80;99.90;;;;;;4898543;28;25299;-79
2020/12/01 01:57:38;;;;;;;25.58;10.85;;;1.70;99.90;;;;;;4899461;28;20086;-80
2020/12/01 02:00:05;;;;;;;24.27;10.73;;;1.80;99.90;;;;;;4903953;28;20091;-80
2020/12/01 02:02:28;;;;;;;25.23;10.77;;;1.80;99.90;;;;;;4896571;28;20093;-80
2020/12/01 02:04:52;;;;;;;24.42;10.10;;;1.80;99.90;;;;;;4905437;28;20107;-79
2020/12/01 02:07:15;;;;;;;24.95;10.70;;;1.70;99.90;;;;;;4908754;28;20085;-80
2020/12/01 02:09:42;;;;;;;22.88;10.32;;;1.80;99.90;;;;;;4903754;28;20092;-80
2020/12/01 02:12:07;;;;;;;21.35;9.80;;;1.80;99.90;;;;;;4907984;28;20099;-80
2020/12/01 02:14:33;;;;;;;25.67;11.00;;;1.80;99.90;;;;;;4905784;28;20091;-80
2020/12/01 02:17:00;;;;;;;23.33;9.98;;;1.80;99.90;;;;;;4878475;28;20104;-80
2020/12/01 02:19:28;;;;;;;24.17;9.88;;;1.80;99.90;;;;;;4877089;28;20081;-81
2020/12/01 02:21:54;;;;;;;24.98;10.80;;;1.80;99.90;;;;;;4875636;28;20094;-80
2020/12/01 02:24:21;;;;;;;25.35;10.23;;;1.80;99.90;;;;;;4874552;28;20094;-80
2020/12/01 02:26:46;;;;;;;27.10;11.15;;;;;;;;;;4882234;28;20099;-80
2020/12/01 02:29:13;;;;;;;24.40;10.63;;;1.80;99.90;;;;;;4882178;28;20192;-80
2020/12/01 02:31:38;;;;;;;25.42;10.20;;;1.80;99.90;;;;;;4899102;28;21325;-80
2020/12/01 02:34:05;;;;;;;25.10;11.15;;;1.80;99.90;;;;;;4904078;28;20100;-80
2020/12/01 02:36:29;;;;;;;25.30;10.20;;;1.80;99.90;;;;;;4906432;28;20097;-79
2020/12/01 02:38:52;;;;;;;21.13;9.57;;;;;;;;;;4906378;28;20479;-81
2020/12/01 02:41:18;;;;;;;25.65;11.43;;;1.80;99.90;;;;;;4898580;28;20102;-80
2020/12/01 02:43:42;;;;;;;39.45;11.02;;;1.80;99.90;;;;;;4904036;28;20534;-80
2020/12/01 02:46:07;;;;;;;26.08;10.50;;;1.90;99.90;;;;;;4909975;28;20099;-80
2020/12/01 02:48:32;;;;;;;28.30;11.70;;;1.80;99.90;;;;;;4910162;28;20443;-80
2020/12/01 02:50:56;;;;;;;24.83;10.85;;;1.90;99.90;;;;;;4901455;28;20084;-80
2020/12/01 02:53:19;;;;;;;23.33;10.80;;;1.90;99.90;;;;;;4899110;28;20456;-81
2020/12/01 02:55:48;;;;;;;22.52;10.70;;;1.90;99.90;;;;;;4897266;28;20787;-80
2020/12/01 02:58:12;;;;;;;22.65;11.13;;;1.90;99.90;;;;;;4900543;28;20086;-80
2020/12/01 03:00:36;;;;;;;24.65;11.50;;;;;;;;;;4897581;28;20090;-80
2020/12/01 03:03:00;;;;;;;23.85;10.32;;;1.90;99.90;;;;;;4902203;28;20578;-79
2020/12/01 03:05:23;;;;;;;24.17;10.68;;;1.90;99.90;;;;;;4898944;28;20100;-80
2020/12/01 03:07:46;;;;;;;24.48;10.77;;;1.90;99.90;;;;;;4899252;28;20097;-80
2020/12/01 03:10:09;;;;;;;23.88;10.48;;;1.90;99.90;;;;;;4905251;28;20173;-80
2020/12/01 03:12:33;;;;;;;19.48;9.43;;;1.90;99.90;;;;;;4898817;28;20537;-80
2020/12/01 03:14:56;;;;;;;25.33;11.00;;;1.90;99.90;;;;;;4902896;28;20518;-81
2020/12/01 03:17:20;;;;;;;22.17;9.85;;;1.90;99.90;;;;;;4903881;28;20098;-80
2020/12/01 03:19:43;;;;;;;22.88;10.60;;;1.90;99.90;;;;;;4900196;28;20087;-81
2020/12/01 03:22:06;;;;;;;25.08;9.48;;;1.90;99.90;;;;;;4900611;28;20092;-81
2020/12/01 03:24:32;;;;;;;23.58;11.02;;;1.90;99.90;;;;;;4905196;28;20111;-81
2020/12/01 03:26:55;;;;;;;29.55;11.13;;;1.90;99.90;;;;;;4878674;28;20092;-80
2020/12/01 03:29:19;;;;;;;25.95;10.40;;;1.90;99.90;;;;;;4884490;28;20509;-80
2020/12/01 03:31:43;;;;;;;25.73;10.93;;;1.90;99.90;;;;;;4880581;28;20712;-80
2020/12/01 03:34:07;;;;;;;28.27;11.48;;;1.90;99.90;;;;;;4880718;28;20093;-80
2020/12/01 03:36:30;;;;;;;28.70;11.55;;;1.90;99.90;;;;;;4880106;28;20088;-80
2020/12/01 03:38:54;;;;;;;22.20;10.27;;;1.80;99.90;;;;;;4878336;28;20085;-80
2020/12/01 03:41:19;;;;;;;26.90;11.85;;;1.90;99.90;;;;;;4874453;28;21646;-80
2020/12/01 03:43:44;;;;;;;30.63;11.73;;;1.90;99.90;;;;;;4886316;28;20665;-80
2020/12/01 03:46:06;;;;;;;27.90;10.25;;;1.90;99.90;;;;;;4900866;28;21047;-80
2020/12/01 03:48:30;;;;;;;25.25;10.95;;;1.90;99.90;;;;;;4904608;28;20155;-82
2020/12/01 03:50:55;;;;;;;24.90;10.00;;;1.90;99.90;;;;;;4897332;28;20481;-80
2020/12/01 03:53:18;;;;;;;22.80;10.73;;;1.90;99.90;;;;;;4900335;28;20175;-81
2020/12/01 03:55:41;;;;;;;22.33;10.30;;;1.90;99.90;;;;;;4905413;28;22751;-80
2020/12/01 03:58:04;;;;;;;23.25;10.77;;;1.90;99.90;;;;;;4904938;28;20098;-82
2020/12/01 04:00:30;;;;;;;24.13;10.48;;;1.90;99.90;;;;;;4898148;28;20121;-80
2020/12/01 04:02:54;;;;;;;27.10;10.40;;;1.90;99.90;;;;;;4903550;28;20083;-80
2020/12/01 04:05:18;;;;;;;25.98;10.77;;;2.00;99.90;;;;;;4901622;28;20155;-82
2020/12/01 04:07:45;;;;;;;27.55;11.32;;;1.90;99.90;;;;;;4881121;28;20088;-80
2020/12/01 04:10:14;;;;;;;25.58;11.07;;;1.90;99.90;;;;;;4877274;28;20549;-79
2020/12/01 04:12:37;;;;;;;25.30;10.50;;;2.00;99.90;;;;;;4904811;28;20197;-80
2020/12/01 04:15:01;;;;;;;21.88;10.75;;;1.90;99.90;;;;;;4908491;28;20088;-80
2020/12/01 04:17:25;;;;;;;26.70;11.00;;;1.90;99.90;;;;;;4905534;28;20089;-80
2020/12/01 04:19:49;;;;;;;25.77;10.57;;;1.90;99.90;;;;;;4900152;28;20083;-80
2020/12/01 04:22:14;;;;;;;25.58;10.93;;;1.90;99.90;;;;;;4899937;28;20171;-80
2020/12/01 04:24:38;;;;;;;24.52;10.45;;;1.90;99.90;;;;;;4891108;28;23127;-80
2020/12/01 04:27:02;;;;;;;23.80;10.77;;;1.90;99.90;;;;;;4895432;28;20087;-81
2020/12/01 04:29:29;;;;;;;23.50;10.70;;;1.90;99.90;;;;;;4879328;28;20090;-79
2020/12/01 04:31:54;;;;;;;26.98;11.18;;;1.90;99.90;;;;;;4875703;28;20090;-79
2020/12/01 04:34:23;;;;;;;25.13;11.70;;;1.90;99.90;;;;;;4881439;28;20546;-80
2020/12/01 04:36:45;;;;;;;25.05;10.77;;;1.90;99.90;;;;;;4897129;28;20110;-80
2020/12/01 04:39:08;;;;;;;33.95;11.43;;;2.00;99.90;;;;;;4902606;28;20082;-80
2020/12/01 04:41:33;;;;;;;23.10;10.25;;;2.00;99.90;;;;;;4898765;28;20537;-80
2020/12/01 04:44:01;;;;;;;24.45;10.40;;;1.90;99.90;;;;;;4898794;28;20112;-80
2020/12/01 04:46:32;;;;;;;24.52;11.13;;;1.90;99.90;;;;;;4899296;28;20093;-80
2020/12/01 04:48:59;;;;;;;24.98;10.93;;;2.00;99.90;;;;;;4903109;28;20128;-80
2020/12/01 04:51:41;;;;;;;32.35;11.60;;;1.90;99.90;;;;;;4900393;28;20100;-79
2020/12/01 04:54:25;;;;;;;27.13;11.77;;;1.90;99.90;;;;;;4902543;28;20088;-80
2020/12/01 04:57:16;;;;;;;28.45;11.80;;;1.90;99.90;;;;;;4895502;28;20153;-80
2020/12/01 05:00:09;;;;;;;29.10;10.77;;;1.90;99.90;;;;;;4883589;28;20100;-79
2020/12/01 05:02:56;;;;;;;28.05;11.73;;;1.90;99.90;;;;;;4887251;28;21791;-80
2020/12/01 05:05:56;;;;;;;28.90;11.60;;;1.90;99.90;;;;;;4872573;28;20090;-80
2020/12/01 05:08:41;;;;;;;23.75;11.05;;;1.90;99.90;;;;;;4890998;28;20200;-80
2020/12/01 05:11:16;;;;;;;30.90;11.13;;;2.00;99.90;;;;;;4881571;28;20586;-81
2020/12/01 05:13:41;;;;;;;26.58;11.75;;;2.00;99.90;;;;;;4886508;28;20500;-79
2020/12/01 05:16:22;;;;;;;21.75;10.70;;;2.00;99.90;;;;;;4880571;28;20095;-80
2020/12/01 05:18:47;;;;;;;25.88;11.05;;;2.00;99.90;;;;;;4875469;28;20077;-79
2020/12/01 05:21:21;;;;;;;26.65;11.43;;;2.00;99.90;;;;;;4884382;28;20085;-80
2020/12/01 05:23:47;;;;;;;27.73;11.63;;;2.00;99.90;;;;;;4874432;28;20092;-80
2020/12/01 05:26:12;;;;;;;22.67;11.10;;;2.00;99.90;;;;;;4875291;28;20150;-81
2020/12/01 05:28:45;;;;;;;28.55;11.68;;;1.90;99.90;;;;;;4880377;28;20095;-80
2020/12/01 05:31:08;;;;;;;31.30;11.48;;;1.90;99.90;;;;;;4873627;28;20085;-80
2020/12/01 05:33:33;;;;;;;22.88;11.27;;;1.90;99.90;;;;;;4879580;28;20094;-80
2020/12/01 05:36:02;;;;;;;27.67;11.20;;;1.90;99.90;;;;;;4899930;28;22622;-80
2020/12/01 05:38:25;;;;;;;24.27;11.05;;;1.90;99.90;;;;;;4903865;28;20216;-80
2020/12/01 05:40:52;;;;;;;26.42;11.02;;;2.00;99.90;;;;;;4906740;28;20096;-80
2020/12/01 05:43:29;;;;;;;24.48;11.13;;;1.90;99.90;;;;;;4906354;28;20093;-80
2020/12/01 05:46:08;;;;;;;24.95;11.32;;;1.90;99.90;;;;;;4904208;28;20092;-81
2020/12/01 05:48:46;;;;;;;22.25;11.05;;;1.90;99.90;;;;;;4900310;28;20173;-80
2020/12/01 05:51:14;;;;;;;26.77;11.20;;;1.90;99.90;;;;;;4895210;28;20192;-80
2020/12/01 05:53:38;;;;;;;22.63;11.05;;;1.90;99.90;;;;;;4901103;28;20426;-80
2020/12/01 05:56:15;;;;;;;29.65;11.20;;;2.00;99.90;;;;;;4908093;28;20085;-80
2020/12/01 05:58:41;;;;;;;24.83;11.55;;;2.00;99.90;;;;;;4873567;28;20141;-80
2020/12/01 06:01:07;;;;;;;25.75;11.27;;;2.00;99.90;;;;;;4885279;28;20090;-79
2020/12/01 06:03:40;;;;;;;25.42;11.48;;;2.00;99.90;;;;;;4876220;28;20089;-81
2020/12/01 06:06:07;;;;;;;28.98;12.85;;;2.00;99.90;;;;;;4894248;28;20086;-80
2020/12/01 06:08:37;;;;;;;29.67;11.75;;;1.90;99.90;;;;;;4904043;28;20516;-80
2020/12/01 06:11:05;;;;;;;29.00;11.20;;;2.00;99.90;;;;;;4900762;28;20418;-81
2020/12/01 06:13:46;;;;;;;22.67;11.10;;;2.00;99.90;;;;;;4897859;28;20177;-81
2020/12/01 06:16:46;;;;;;;25.75;12.50;;;2.00;99.90;;;;;;4894495;28;20098;-79
2020/12/01 06:19:25;;;;;;;25.98;11.45;;;2.00;99.90;;;;;;4908349;28;20150;-80
2020/12/01 06:22:22;;;;;;;26.85;11.85;;;2.00;99.90;;;;;;4879706;28;20085;-79
2020/12/01 06:25:37;;;;;;;25.55;11.43;;;2.00;99.90;;;;;;4881409;28;20092;-80
2020/12/01 06:28:39;;;;;;;26.27;11.43;;;2.00;99.90;;;;;;4878708;28;20650;-81
2020/12/01 06:31:28;;;;;;;29.65;11.65;;;1.90;99.90;;;;;;4875082;28;20087;-81
2020/12/01 06:34:14;;;;;;;27.02;11.70;;;2.00;99.90;;;;;;4903120;28;20092;-81
2020/12/01 06:37:20;;;;;;;31.48;14.25;;;1.90;99.90;;;;;;4894975;28;20089;-80
2020/12/01 06:39:53;;;;;;;39.28;15.82;;;1.90;99.90;;;;;;4872572;28;20550;-80
2020/12/01 06:42:24;;;;;;;31.75;13.50;;;1.90;99.90;;;;;;4885870;28;20085;-80
2020/12/01 06:44:58;;;;;;;31.30;14.52;;;1.90;99.90;;;;;;4880086;28;20093;-80
2020/12/01 06:47:29;;;;;;;25.52;12.60;;;1.90;99.90;;;;;;4876862;28;20159;-81
2020/12/01 06:49:59;;;;;;;30.85;12.55;;;2.00;99.90;;;;;;4901453;28;20080;-81
2020/12/01 06:52:22;;;;;;;27.15;12.07;;;2.00;99.90;;;;;;4900928;28;20556;-80
2020/12/01 06:54:50;;;;;;;29.58;12.85;;;2.00;99.90;;;;;;4909775;28;20109;-81
2020/12/01 06:57:30;;;;;;;31.08;13.23;;;2.00;99.90;;;;;;4901021;28;20091;-80
2020/12/01 06:59:53;;;;;;;34.25;11.95;;;2.00;99.90;;;;;;4875189;28;20107;-80
2020/12/01 07:02:27;;;;;;;32.22;12.98;;;2.00;99.90;;;;;;4878145;28;20093;-80
2020/12/01 07:05:11;;;;;;;27.55;12.70;;;2.00;99.90;;;;;;4905996;28;20489;-80
2020/12/01 07:07:38;;;;;;;32.47;13.73;;;2.00;99.90;;;;;;4893390;28;20136;-80
2020/12/01 07:10:13;;;;;;;28.88;13.60;;;2.00;99.90;;;;;;4906868;28;20832;-80
2020/12/01 07:12:44;;;;;;;31.60;12.43;;;2.00;99.90;;;;;;4901674;28;25192;-81
2020/12/01 07:15:13;;;;;;;30.20;12.13;;;2.00;99.90;;;;;;4886173;28;20147;-79
2020/12/01 07:17:51;;;;;;;31.33;12.63;;;2.00;99.90;;;;;;4875391;28;20089;-80
2020/12/01 07:20:33;;;;;;;35.90;12.82;;;2.00;99.90;;;;;;4880713;28;20267;-80
2020/12/01 07:23:07;;;;;;;30.23;12.43;;;2.00;99.90;;;;;;4901952;28;20097;-80
2020/12/01 07:25:37;;;;;;;27.38;12.32;;;2.00;99.90;;;;;;4890643;28;20090;-80
2020/12/01 07:28:17;;;;;;;33.03;12.90;;;2.00;99.90;;;;;;4894790;28;20099;-81
2020/12/01 07:30:57;;;;;;;32.85;13.20;;;2.00;99.90;;;;;;4899607;28;20499;-80
2020/12/01 07:33:24;;;;;;;33.08;13.30;;;2.00;99.90;;;;;;4875816;28;20503;-80
2020/12/01 07:35:50;;;;;;;30.08;12.85;;;1.90;99.90;;;;;;4877796;28;20154;-80
2020/12/01 07:38:27;;;;;;;35.45;15.07;;;2.30;99.90;;;;;;4881180;28;20084;-80
2020/12/01 07:40:54;;;;;;;28.15;12.13;;;2.10;99.90;;;;;;4872968;28;20085;-80
2020/12/01 07:43:21;;;;;;;29.20;12.85;;;2.00;99.90;;;;;;4900430;28;20086;-80
2020/12/01 07:45:45;;;;;;;31.35;13.00;;;2.00;99.90;;;;;;4900309;28;20191;-80
2020/12/01 07:48:14;;;;;;;29.35;13.52;;;2.10;99.90;;;;;;4898008;28;20104;-80
2020/12/01 07:50:37;;;;;;;26.92;12.80;;;;;;;;;;4877778;28;20094;-81
2020/12/01 07:53:04;;;;;;;36.63;14.45;;;2.10;99.90;;;;;;4872449;28;20119;-80
2020/12/01 07:55:37;;;;;;;30.80;13.38;;;2.10;99.90;;;;;;4875505;28;20124;-80
2020/12/01 07:58:01;;;;;;;32.78;13.38;;;2.10;99.90;;;;;;4884038;28;20091;-81
2020/12/01 08:00:25;;;;;;;31.77;13.43;;;;;;;;;;4877637;28;20095;-80
2020/12/01 08:02:48;;;;;;;30.30;14.38;;;2.10;99.90;;;;;;4874774;28;20492;-80
2020/12/01 08:05:14;;;;;;;34.50;14.13;;;2.10;99.90;;;;;;4873718;28;20930;-80
2020/12/01 08:07:37;;;;;;;30.13;12.90;;;2.20;99.90;;;;;;4878626;28;20089;-81
2020/12/01 08:10:06;;;;;;;32.05;13.05;;;2.20;99.90;;;;;;4871654;28;20089;-83
2020/12/01 08:12:36;;;;;;;34.67;14.70;;;2.20;99.90;;;;;;4892281;28;20543;-81
2020/12/01 08:15:00;;;;;;;33.08;13.77;;;2.20;99.90;;;;;;4870540;28;20115;-80
2020/12/01 08:17:27;;;;;;;32.70;13.48;;;2.20;99.90;;;;;;4870345;28;20095;-80
2020/12/01 08:19:52;;;;;;;32.97;12.98;;;2.20;99.90;;;;;;4866119;28;20116;-80
2020/12/01 08:22:18;;;;;;;26.58;12.60;;;2.20;99.90;;;;;;4876987;28;20095;-79
2020/12/01 08:24:42;;;;;;;36.00;14.02;;;2.20;99.90;;;;;;4878756;28;20079;-80
2020/12/01 08:27:17;;;;;;;27.02;12.68;;;2.20;99.90;;;;;;4880543;28;20085;-79
2020/12/01 08:29:40;;;;;;;33.40;14.95;;;2.20;99.90;;;;;;4869423;28;20520;-79
2020/12/01 08:32:12;;;;;;;31.27;13.70;;;2.20;99.90;;;;;;4875340;28;20097;-80
2020/12/01 08:34:45;;;;;;;37.85;13.52;;;2.20;99.90;;;;;;4882697;28;20101;-80
2020/12/01 08:37:42;;;;;;;33.35;13.35;;;2.20;99.90;;;;;;4900337;28;20155;-81
2020/12/01 08:40:14;;;;;;;35.47;14.82;;;2.30;99.90;;;;;;4870721;28;20499;-80
2020/12/01 08:43:01;;;;;;;29.85;12.75;;;2.30;99.90;;;;;;4875609;28;20104;-81
2020/12/01 08:45:37;;;;;;;27.30;12.15;;;2.20;99.90;;;;;;4875387;28;20094;-80
2020/12/01 08:48:02;;;;;;;30.70;12.32;;;2.30;99.90;;;;;;4872531;28;20165;-80
2020/12/01 08:50:30;;;;;;;28.17;12.38;;;2.20;99.90;;;;;;4875336;28;20100;-80
2020/12/01 08:53:05;;;;;;;26.60;12.88;;;2.30;99.90;;;;;;4899620;28;20605;-80
2020/12/01 08:55:32;;;;;;;29.73;12.60;;;2.30;99.90;;;;;;4869368;28;20085;-80
2020/12/01 08:58:07;;;;;;;27.08;13.35;;;2.30;99.90;;;;;;4872593;28;20547;-80
2020/12/01 09:00:41;;;;;;;32.33;13.10;;;2.30;99.90;;;;;;4863778;28;20165;-80
2020/12/01 09:03:32;;;;;;;29.27;13.55;;;2.30;99.90;;;;;;4815695;28;20526;-80
2020/12/01 09:05:59;;;;;;;31.58;13.75;;;2.30;99.90;;;;;;4836653;28;20094;-80
2020/12/01 09:08:55;;;;;;;33.50;14.80;;;2.40;99.90;;;;;;4850347;28;20092;-81
2020/12/01 09:18:16;;;;;;;29.05;13.18;;;2.50;99.90;;;;;;4822401;28;20083;-79
2020/12/01 09:24:27;;;;;;;29.23;12.18;;;2.60;99.90;;;;;;4835629;28;20173;-80
2020/12/01 09:30:56;;;;;;;25.50;12.25;;;2.80;99.90;;;;;;4815284;28;20097;-80
2020/12/01 09:33:33;;;;;;;30.20;13.43;;;2.80;99.90;;;;;;4831006;28;20124;-80
2020/12/01 09:36:54;;;;;;;35.10;13.70;;;2.80;99.90;;;;;;4820521;28;20546;-81
2020/12/01 09:40:14;;;;;;;29.48;13.45;;;2.80;99.90;;;;;;4838161;28;20085;-80
2020/12/01 09:43:09;;;;;;;29.10;12.68;;;2.70;99.90;;;;;;4828473;28;20104;-81
2020/12/01 09:46:00;;;;;;;28.40;12.85;;;2.70;99.90;;;;;;4814386;28;20134;-80
2020/12/01 09:48:41;;;;;;;28.63;12.90;;;2.80;99.90;;;;;;4817481;28;20582;-80
2020/12/01 09:51:34;;;;;;;29.10;12.45;;;2.80;99.90;;;;;;4839147;28;20166;-80
2020/12/01 09:54:36;;;;;;;35.85;15.27;;;2.80;99.90;;;;;;4833008;28;20090;-80
2020/12/01 09:57:28;;;;;;;29.02;11.50;;;2.80;99.90;;;;;;4838571;28;20513;-79
2020/12/01 10:00:25;;;;;;;26.83;12.90;;;2.70;99.90;;;;;;4832195;28;20093;-80
2020/12/01 10:09:02;;;;;;;37.17;14.27;;;2.90;99.90;;;;;;4821500;28;20093;-80
2020/12/01 10:12:02;;;;;;;41.10;14.55;;;2.90;99.90;;;;;;4820292;28;20179;-80
2020/12/01 10:17:41;;;;;;;31.27;13.55;;;2.90;99.90;;;;;;4826349;28;20101;-80
2020/12/01 10:26:17;;;;;;;31.02;13.52;;;3.10;99.90;;;;;;4845406;28;20092;-80
2020/12/01 10:34:46;;;;;;;34.17;13.70;;;3.30;99.90;;;;;;4844415;28;20489;-80
2020/12/01 10:37:11;;;;;;;31.63;13.18;;;3.20;99.90;;;;;;4843920;28;20099;-82
2020/12/01 10:40:05;;;;;;;32.70;13.13;;;3.20;99.90;;;;;;4846755;28;20091;-80
2020/12/01 10:42:51;;;;;;;32.40;14.07;;;3.10;99.90;;;;;;4848705;28;20171;-79
2020/12/01 10:45:15;;;;;;;33.90;13.88;;;3.00;99.90;;;;;;4869541;28;20088;-80
2020/12/01 10:47:40;;;;;;;32.90;13.93;;;3.10;99.90;;;;;;4902634;28;20087;-80
2020/12/01 10:50:06;;;;;;;34.22;14.00;;;3.20;99.90;;;;;;4889609;28;20087;-80
2020/12/01 10:52:28;;;;;;;;;;;3.20;99.90;;;;;;4896394;28;20179;-80
2020/12/01 10:54:51;;;;;;;33.67;14.15;;;3.20;99.90;;;;;;4894760;28;20854;-79
2020/12/01 10:57:15;;;;;;;36.05;14.13;;;3.20;99.90;;;;;;4900204;28;20486;-82
2020/12/01 10:59:38;;;;;;;34.30;13.48;;;3.30;99.90;;;;;;4902301;28;20495;-80
2020/12/01 11:02:01;;;;;;;31.70;14.68;;;3.20;99.90;;;;;;4902376;28;20426;-81
2020/12/01 11:04:24;;;;;;;36.47;15.02;;;3.30;99.90;;;;;;4903651;28;20160;-80
2020/12/01 11:06:49;;;;;;;33.05;14.55;;;3.30;99.90;;;;;;4897202;28;20087;-80
2020/12/01 11:09:13;;;;;;;35.40;15.70;;;3.30;99.90;;;;;;4907340;28;20128;-80
2020/12/01 11:11:37;;;;;;;32.72;14.07;;;3.30;99.90;;;;;;4896943;28;20423;-80
2020/12/01 11:14:04;;;;;;;30.70;13.55;;;3.30;99.90;;;;;;4899739;28;20533;-80
2020/12/01 11:16:27;;;;;;;34.42;14.43;;;3.30;99.90;;;;;;4902523;28;22550;-80
2020/12/01 11:18:50;;;;;;;35.17;14.90;;;3.30;99.90;;;;;;4899625;28;20151;-80
2020/12/01 11:21:13;;;;;;;35.83;16.15;;;3.20;99.90;;;;;;4893507;28;20128;-80
2020/12/01 11:23:37;;;;;;;32.63;13.32;;;3.30;99.90;;;;;;4903207;28;22842;-80
2020/12/01 11:26:01;;;;;;;35.00;15.73;;;3.30;99.90;;;;;;4899270;28;20148;-81
2020/12/01 11:28:25;;;;;;;41.35;14.43;;;3.30;99.90;;;;;;4901551;28;20514;-80
2020/12/01 11:30:49;;;;;;;39.38;15.27;;;3.30;99.90;;;;;;4878888;28;20087;-80
2020/12/01 11:33:12;;;;;;;36.58;14.68;;;3.40;99.90;;;;;;4880419;28;20106;-80
2020/12/01 11:35:35;;;;;;;30.45;14.73;;;3.40;99.90;;;;;;4876685;28;20424;-80
2020/12/01 11:37:58;;;;;;;32.45;15.52;;;3.50;99.90;;;;;;4884245;28;20449;-80
2020/12/01 11:40:23;;;;;;;34.72;14.48;;;3.40;99.90;;;;;;4882274;28;20098;-80
2020/12/01 11:42:47;;;;;;;34.47;14.55;;;3.50;99.90;;;;;;4891539;28;20083;-80
2020/12/01 11:45:13;;;;;;;34.78;15.65;;;3.50;99.90;;;;;;4892474;28;20083;-80
2020/12/01 11:47:36;;;;;;;37.80;15.95;;;3.50;99.90;;;;;;4896497;28;20141;-80
2020/12/01 11:49:59;;;;;;;32.38;15.05;;;3.60;99.90;;;;;;4899859;28;20403;-80
2020/12/01 11:52:23;;;;;;;40.17;16.05;;;3.60;99.90;;;;;;4896419;28;20095;-80
2020/12/01 11:54:47;;;;;;;40.83;16.77;;;3.50;99.90;;;;;;4899673;28;20451;-80
2020/12/01 11:57:13;;;;;;;36.97;15.23;;;3.60;99.90;;;;;;4897833;28;25414;-80
2020/12/01 11:59:36;;;;;;;39.50;17.73;;;3.60;99.90;;;;;;4893215;28;20095;-80
2020/12/01 12:01:59;;;;;;;38.03;16.00;;;3.70;99.90;;;;;;4895159;28;20449;-80
2020/12/01 12:04:22;;;;;;;32.45;15.88;;;3.70;99.90;;;;;;4899584;28;20101;-80
2020/12/01 12:06:45;;;;;;;33.85;15.60;;;3.80;99.90;;;;;;4898520;28;20062;-80
2020/12/01 12:09:10;;;;;;;37.47;16.33;;;3.80;99.90;;;;;;4901666;28;20621;-79
2020/12/01 12:11:33;;;;;;;38.97;17.02;;;3.80;99.90;;;;;;4902855;28;20091;-80
2020/12/01 12:13:58;;;;;;;35.22;16.00;;;3.80;99.90;;;;;;4900343;28;20091;-81
2020/12/01 12:16:22;;;;;;;40.22;17.80;;;3.80;99.90;;;;;;4897016;28;20086;-80
2020/12/01 12:18:47;;;;;;;42.08;18.13;;;3.90;99.90;;;;;;4904702;28;20082;-82
2020/12/01 12:21:10;;;;;;;38.72;16.83;;;3.80;99.90;;;;;;4876659;28;20083;-81
2020/12/01 12:23:33;;;;;;;43.78;16.55;;;3.90;99.90;;;;;;4875431;28;20604;-80
2020/12/01 12:25:56;;;;;;;42.40;16.83;;;4.00;99.90;;;;;;4878926;28;20442;-81
2020/12/01 12:28:21;;;;;;;39.45;17.33;;;4.00;99.90;;;;;;4876815;28;20095;-81
2020/12/01 12:30:46;;;;;;;42.05;17.95;;;3.90;99.90;;;;;;4879787;28;20115;-81
2020/12/01 12:33:10;;;;;;;44.10;16.58;;;4.00;99.90;;;;;;4898114;28;20086;-80
2020/12/01 12:35:33;;;;;;;43.03;17.27;;;4.00;99.90;;;;;;4893483;28;20079;-80
2020/12/01 12:37:56;;;;;;;42.53;17.73;;;4.00;99.90;;;;;;4898436;28;20091;-80
2020/12/01 12:40:21;;;;;;;41.40;17.10;;;3.90;99.90;;;;;;4899447;28;20555;-80
2020/12/01 12:42:44;;;;;;;44.75;17.60;;;3.90;99.90;;;;;;4898586;28;20494;-80
2020/12/01 12:45:07;;;;;;;40.17;16.35;;;3.90;99.90;;;;;;4900855;28;20105;-80
2020/12/01 12:47:31;;;;;;;48.40;18.23;;;3.80;99.90;;;;;;4878627;28;20092;-80
2020/12/01 12:49:54;;;;;;;42.10;17.45;;;3.80;99.90;;;;;;4880307;28;24969;-80
2020/12/01 12:52:17;;;;;;;42.38;17.00;;;3.80;99.90;;;;;;4872432;28;20092;-80
2020/12/01 12:54:40;;;;;;;44.15;17.55;;;3.80;99.90;;;;;;4881737;28;20106;-80
2020/12/01 12:57:03;;;;;;;51.17;18.38;;;3.80;99.90;;;;;;4877181;28;20097;-80
2020/12/01 12:59:26;;;;;;;42.63;17.92;;;3.70;99.90;;;;;;4880952;28;20166;-81
2020/12/01 13:01:49;;;;;;;44.15;18.00;;;3.70;99.90;;;;;;4871520;28;20122;-80
2020/12/01 13:04:13;;;;;;;45.55;17.70;;;3.80;99.90;;;;;;4878934;28;20488;-80
2020/12/01 13:06:36;;;;;;;47.22;16.98;;;3.80;99.90;;;;;;4875306;28;20088;-80
2020/12/01 13:09:00;;;;;;;49.63;18.40;;;3.80;99.90;;;;;;4870118;28;20084;-80
2020/12/01 13:11:23;;;;;;;49.78;17.48;;;3.90;99.90;;;;;;4862084;28;20095;-80
2020/12/01 13:13:46;;;;;;;46.97;18.02;;;3.80;99.90;;;;;;4866834;28;20088;-80
2020/12/01 13:16:10;;;;;;;45.13;17.08;;;3.80;99.90;;;;;;4869663;28;20092;-81
2020/12/01 13:18:34;;;;;;;45.13;16.92;;;3.90;99.90;;;;;;4893445;28;20469;-80
2020/12/01 13:20:59;;;;;;;44.15;16.23;;;3.80;99.90;;;;;;4896618;28;20588;-80
2020/12/01 13:23:22;;;;;;;46.90;16.77;;;3.80;99.90;;;;;;4900481;28;20083;-80
2020/12/01 13:25:45;;;;;;;36.67;15.20;;;3.80;99.90;;;;;;4902368;28;20169;-80